George S. — A8TJ9 — position and weather

sailwx.info

Track history (hours):
 
Tides and Currents Weather Stations Pressure Air Temp Water Temp Dewpoint Dewpoint Depression Visibility Wind Speed Wind Dir Waves Ship Positions

George S.

Last reported at 2017-May-26 14:29 UTC. Time now 2017-May-26 16:53 UTC.
Position N 49°35' W 000°14'.

Length 274 m; draft 16 m.

Type: Tanker. MMSI: 636014372.

Date/timePositionNaut miles runAvg speedWind from/ knotsBaromVisibWave heightAir tempDewpointWater temp
2017-May-26 14:29N 49°35' W 000°14'0 0.1
2017-May-26 10:59N 49°35' W 000°14'0 0.0
2017-May-26 10:29N 49°35' W 000°14'0 0.0
2017-May-26 09:59N 49°35' W 000°14'0 0.0
2017-May-26 09:29N 49°35' W 000°14'0 0.0
2017-May-26 08:59N 49°35' W 000°14'0 0.0
2017-May-26 08:29N 49°35' W 000°14'0 0.0
2017-May-26 07:59N 49°35' W 000°14'0 0.1
2017-May-26 07:29N 49°35' W 000°14'0 0.1
2017-May-26 06:59N 49°35' W 000°14'0 0.1
2017-May-26 06:29N 49°35' W 000°14'0 0.3
2017-May-26 05:59N 49°35' W 000°14'0 0.3
2017-May-26 05:29N 49°35' W 000°14'0 0.1
2017-May-26 04:59N 49°35' W 000°14'0 0.0
2017-May-26 04:29N 49°35' W 000°14'0 0.1
2017-May-26 03:59N 49°35' W 000°14'0 0.0
2017-May-26 03:29N 49°35' W 000°14'0 0.0
2017-May-26 02:59N 49°35' W 000°14'0 0.0
2017-May-26 02:29N 49°35' W 000°14'0 0.0
2017-May-26 01:59N 49°35' W 000°14'0 0.0
2017-May-26 01:29N 49°35' W 000°14'0 0.0
2017-May-26 00:59N 49°35' W 000°14'0 0.0
2017-May-26 00:29N 49°35' W 000°14'0 0.0
2017-May-25 23:59N 49°35' W 000°14'0 0.2
2017-May-25 23:29N 49°35' W 000°14'0 0.4
2017-May-25 22:59N 49°35' W 000°14'0 0.2
2017-May-25 22:29N 49°35' W 000°14'0 0.1
2017-May-25 21:59N 49°35' W 000°14'0 0.0
2017-May-25 21:29N 49°35' W 000°14'0 0.2
2017-May-25 21:00N 49°35' W 000°14'0 1.0
2017-May-25 20:30N 49°35' W 000°14'4 7.2
2017-May-25 20:01N 49°35' W 000°19'4 7.3
2017-May-25 19:30N 49°37' W 000°23'713.4
2017-May-25 19:00N 49°42' W 000°31'815.6
2017-May-25 18:31N 49°45' W 000°42'815.8
2017-May-25 18:01N 49°49' W 000°53'815.6
2017-May-25 17:31N 49°53' W 001°03'714.5
2017-May-25 17:00N 49°56' W 001°13'713.2
2017-May-25 16:30N 49°57' W 001°23'612.3
2017-May-25 16:00N 49°58' W 001°33'611.3
2017-May-25 15:30N 49°58' W 001°42'510.4
2017-May-25 15:00N 49°58' W 001°50'5 9.7
2017-May-25 14:30N 49°57' W 001°57'9 9.1
2017-May-25 13:30N 49°55' W 002°11'4 8.7
2017-May-25 13:00N 49°54' W 002°18'5 9.1
2017-May-25 12:30N 49°53' W 002°24'5 9.6
2017-May-25 12:00N 49°52' W 002°32'510.3
2017-May-25 11:30N 49°50' W 002°39'510.7
2017-May-25 11:00N 49°49' W 002°47'611.1
2017-May-25 10:30N 49°47' W 002°56'611.5
2017-May-25 10:00N 49°46' W 003°04'611.8
2017-May-25 09:30N 49°44' W 003°13'612.2
2017-May-25 09:00N 49°43' W 003°22'612.1
2017-May-25 08:30N 49°41' W 003°31'612.4
2017-May-25 08:00N 49°37' W 003°39'612.6
2017-May-25 07:30N 49°34' W 003°47'612.8
2017-May-25 07:00N 49°30' W 003°55'713.0
2017-May-25 06:30N 49°27' W 004°04'713.3
2017-May-25 05:58N 49°23' W 004°13'713.7
2017-May-25 05:26N 49°19' W 004°22'614.6
2017-May-25 05:00N 49°16' W 004°31'1114.8
2017-May-25 04:13N 49°09' W 004°45'315.0
2017-May-25 04:00N 49°07' W 004°49'815.0
2017-May-25 03:30N 49°03' W 004°59'715.0
2017-May-25 03:00N 48°59' W 005°09'815.0
2017-May-25 02:30N 48°55' W 005°18'814.8
2017-May-25 01:59N 48°51' W 005°28'1114.4
2017-May-25 01:14N 48°44' W 005°40'1114.5
2017-May-25 00:28N 48°34' W 005°48'714.2
2017-May-25 00:00N 48°28' W 005°53'2213.3
2017-May-24 22:20N 48°09' W 006°10'14 7.0
2017-May-24 20:18N 47°57' W 006°20'45912.5
2017-May-23 07:32N 40°44' W 009°56'6612.8
2017-May-23 02:23N 39°38' W 009°57'2012.7
2017-May-23 00:48N 39°18' W 009°57'412.5
2017-May-23 00:30N 39°14' W 009°57'612.7
2017-May-23 00:00N 39°08' W 009°57'612.7
2017-May-22 23:30N 39°02' W 009°57'612.8
2017-May-22 23:00N 38°55' W 009°57'612.7
2017-May-22 22:30N 38°49' W 009°57'612.8
2017-May-22 22:00N 38°43' W 009°57'612.6
2017-May-22 21:30N 38°36' W 009°55'612.5
2017-May-22 21:00N 38°30' W 009°53'612.5
2017-May-22 20:30N 38°24' W 009°51'612.5
2017-May-22 20:00N 38°18' W 009°49'612.4
2017-May-22 19:30N 38°12' W 009°47'612.5
2017-May-22 19:00N 38°06' W 009°45'612.5
2017-May-22 18:30N 38°00' W 009°43'612.4
2017-May-22 18:00N 37°54' W 009°41'612.5
2017-May-22 17:30N 37°48' W 009°41'612.4
2017-May-22 17:00N 37°42' W 009°39'612.3
2017-May-22 16:30N 37°36' W 009°37'612.5
2017-May-22 16:00N 37°30' W 009°36'612.6
2017-May-22 15:30N 37°24' W 009°34'812.5
2017-May-22 14:52N 37°16' W 009°32'812.6
2017-May-22 14:13N 37°08' W 009°29'4111.3
2017-May-22 10:36N 36°37' W 008°55'213.2
2017-May-22 10:29N 36°37' W 008°54'1513.1
2017-May-22 09:20N 36°33' W 008°35'2412.9
2017-May-22 07:27N 36°26' W 008°06'813.6
2017-May-22 06:53N 36°24' W 007°57'513.6
2017-May-22 06:29N 36°22' W 007°51'713.0
2017-May-22 05:55N 36°20' W 007°42'10212.7
2017-May-21 21:53N 35°58' W 005°39'513.0
2017-May-21 21:30N 35°59' W 005°33'612.6
2017-May-21 21:00N 36°01' W 005°25'612.3
2017-May-21 20:30N 36°02' W 005°18'612.3
2017-May-21 20:00N 36°03' W 005°10'22913.1
2017-May-21 02:33N 36°39' W 000°30'213.1
2017-May-21 02:24N 36°39' W 000°28'613.1
2017-May-21 01:56N 36°40' W 000°20'613.1
2017-May-21 01:29N 36°41' W 000°13'613.0
2017-May-21 01:00N 36°42' W 000°05'713.0
2017-May-21 00:30N 36°43' E 000°03'613.0
2017-May-21 00:00N 36°44' E 000°11'1013.1
2017-May-20 23:13N 36°46' E 000°24'313.0
2017-May-20 23:00N 36°46' E 000°27'713.1
2017-May-20 22:29N 36°47' E 000°35'2212.7
2017-May-20 20:44N 36°52' E 001°03'312.6
2017-May-20 20:30N 36°52' E 001°06'612.7
2017-May-20 20:00N 36°53' E 001°14'612.9
2017-May-20 19:30N 36°54' E 001°22'713.3
2017-May-20 19:00N 36°54' E 001°30'713.6
2017-May-20 18:30N 36°55' E 001°39'713.6
2017-May-20 18:00N 36°56' E 001°47'713.4
2017-May-20 17:30N 36°58' E 001°55'713.7
2017-May-20 17:00N 36°59' E 002°04'713.7
2017-May-20 16:29N 37°00' E 002°13'1413.6
2017-May-20 15:25N 37°02' E 002°31'3813.2
2017-May-20 12:33N 37°08' E 003°17'213.0
2017-May-20 12:23N 37°08' E 003°20'513.0
2017-May-20 12:00N 37°09' E 003°26'713.0
2017-May-20 11:30N 37°10' E 003°34'16413.4
2017-May-19 23:20N 37°36' E 006°58'513.4
2017-May-19 22:56N 37°37' E 007°04'713.2
2017-May-19 22:24N 37°38' E 007°13'613.5
2017-May-19 21:58N 37°39' E 007°20'613.4
2017-May-19 21:30N 37°40' E 007°28'713.3
2017-May-19 20:59N 37°41' E 007°37'813.4
2017-May-19 20:25N 37°42' E 007°46'613.2
2017-May-19 19:59N 37°43' E 007°54'713.4
2017-May-19 19:27N 37°44' E 008°02'13312.8
2017-May-19 09:02N 37°34' E 010°50'212.2
2017-May-19 08:52N 37°33' E 010°52'4312.7
2017-May-19 05:29N 37°14' E 011°40'613.0
2017-May-19 05:00N 37°11' E 011°47'713.0
2017-May-19 04:27N 37°07' E 011°55'912.8
2017-May-19 03:46N 37°03' E 012°05'512.5
2017-May-19 03:22N 37°02' E 012°11'1212.5
2017-May-19 02:26N 36°59' E 012°25'512.3
2017-May-19 02:00N 36°57' E 012°31'612.6
2017-May-19 01:30N 36°56' E 012°39'712.9
2017-May-19 00:58N 36°53' E 012°47'612.7
2017-May-19 00:30N 36°51' E 012°54'712.9
2017-May-19 00:00N 36°49' E 013°01'713.1
2017-May-18 23:30N 36°47' E 013°09'613.2
2017-May-18 23:00N 36°45' E 013°17'713.5
2017-May-18 22:30N 36°43' E 013°25'713.6
2017-May-18 22:00N 36°42' E 013°33'713.5
2017-May-18 21:30N 36°40' E 013°42'713.5
2017-May-18 21:00N 36°38' E 013°49'713.4
2017-May-18 20:30N 36°36' E 013°58'713.3
2017-May-18 20:00N 36°34' E 014°05'713.0
2017-May-18 19:30N 36°32' E 014°13'612.8
2017-May-18 19:00N 36°30' E 014°21'612.7
2017-May-18 18:30N 36°28' E 014°28'612.8
2017-May-18 18:00N 36°27' E 014°36'612.8
2017-May-18 17:30N 36°25' E 014°44'612.8
2017-May-18 17:00N 36°23' E 014°51'612.7
2017-May-18 16:30N 36°21' E 014°59'  
Track history (hours):
 
Tides and Currents Weather Stations Pressure Air Temp Water Temp Dewpoint Dewpoint Depression Visibility Wind Speed Wind Dir Waves Ship Positions

George S.

Last reported at 2017-May-26 14:29 UTC. Time now 2017-May-26 16:53 UTC.
Position N 49°35' W 000°14'.

Length 274 m; draft 16 m.

Type: Tanker. MMSI: 636014372.

Date/timePositionNaut miles runAvg speedWind from/ knotsBaromVisibWave heightAir tempDewpointWater temp
2017-May-26 14:29N 49°35' W 000°14'0 0.1
2017-May-26 10:59N 49°35' W 000°14'0 0.0
2017-May-26 10:29N 49°35' W 000°14'0 0.0
2017-May-26 09:59N 49°35' W 000°14'0 0.0
2017-May-26 09:29N 49°35' W 000°14'0 0.0
2017-May-26 08:59N 49°35' W 000°14'0 0.0
2017-May-26 08:29N 49°35' W 000°14'0 0.0
2017-May-26 07:59N 49°35' W 000°14'0 0.1
2017-May-26 07:29N 49°35' W 000°14'0 0.1
2017-May-26 06:59N 49°35' W 000°14'0 0.1
2017-May-26 06:29N 49°35' W 000°14'0 0.3
2017-May-26 05:59N 49°35' W 000°14'0 0.3
2017-May-26 05:29N 49°35' W 000°14'0 0.1
2017-May-26 04:59N 49°35' W 000°14'0 0.0
2017-May-26 04:29N 49°35' W 000°14'0 0.1
2017-May-26 03:59N 49°35' W 000°14'0 0.0
2017-May-26 03:29N 49°35' W 000°14'0 0.0
2017-May-26 02:59N 49°35' W 000°14'0 0.0
2017-May-26 02:29N 49°35' W 000°14'0 0.0
2017-May-26 01:59N 49°35' W 000°14'0 0.0
2017-May-26 01:29N 49°35' W 000°14'0 0.0
2017-May-26 00:59N 49°35' W 000°14'0 0.0
2017-May-26 00:29N 49°35' W 000°14'0 0.0
2017-May-25 23:59N 49°35' W 000°14'0 0.2
2017-May-25 23:29N 49°35' W 000°14'0 0.4
2017-May-25 22:59N 49°35' W 000°14'0 0.2
2017-May-25 22:29N 49°35' W 000°14'0 0.1
2017-May-25 21:59N 49°35' W 000°14'0 0.0
2017-May-25 21:29N 49°35' W 000°14'0 0.2
2017-May-25 21:00N 49°35' W 000°14'0 1.0
2017-May-25 20:30N 49°35' W 000°14'4 7.2
2017-May-25 20:01N 49°35' W 000°19'4 7.3
2017-May-25 19:30N 49°37' W 000°23'713.4
2017-May-25 19:00N 49°42' W 000°31'815.6
2017-May-25 18:31N 49°45' W 000°42'815.8
2017-May-25 18:01N 49°49' W 000°53'815.6
2017-May-25 17:31N 49°53' W 001°03'714.5
2017-May-25 17:00N 49°56' W 001°13'713.2
2017-May-25 16:30N 49°57' W 001°23'612.3
2017-May-25 16:00N 49°58' W 001°33'611.3
2017-May-25 15:30N 49°58' W 001°42'510.4
2017-May-25 15:00N 49°58' W 001°50'5 9.7
2017-May-25 14:30N 49°57' W 001°57'9 9.1
2017-May-25 13:30N 49°55' W 002°11'4 8.7
2017-May-25 13:00N 49°54' W 002°18'5 9.1
2017-May-25 12:30N 49°53' W 002°24'5 9.6
2017-May-25 12:00N 49°52' W 002°32'510.3
2017-May-25 11:30N 49°50' W 002°39'510.7
2017-May-25 11:00N 49°49' W 002°47'611.1
2017-May-25 10:30N 49°47' W 002°56'611.5
2017-May-25 10:00N 49°46' W 003°04'611.8
2017-May-25 09:30N 49°44' W 003°13'612.2
2017-May-25 09:00N 49°43' W 003°22'612.1
2017-May-25 08:30N 49°41' W 003°31'612.4
2017-May-25 08:00N 49°37' W 003°39'612.6
2017-May-25 07:30N 49°34' W 003°47'612.8
2017-May-25 07:00N 49°30' W 003°55'713.0
2017-May-25 06:30N 49°27' W 004°04'713.3
2017-May-25 05:58N 49°23' W 004°13'713.7
2017-May-25 05:26N 49°19' W 004°22'614.6
2017-May-25 05:00N 49°16' W 004°31'1114.8
2017-May-25 04:13N 49°09' W 004°45'315.0
2017-May-25 04:00N 49°07' W 004°49'815.0
2017-May-25 03:30N 49°03' W 004°59'715.0
2017-May-25 03:00N 48°59' W 005°09'815.0
2017-May-25 02:30N 48°55' W 005°18'814.8
2017-May-25 01:59N 48°51' W 005°28'1114.4
2017-May-25 01:14N 48°44' W 005°40'1114.5
2017-May-25 00:28N 48°34' W 005°48'714.2
2017-May-25 00:00N 48°28' W 005°53'2213.3
2017-May-24 22:20N 48°09' W 006°10'14 7.0
2017-May-24 20:18N 47°57' W 006°20'45912.5
2017-May-23 07:32N 40°44' W 009°56'6612.8
2017-May-23 02:23N 39°38' W 009°57'2012.7
2017-May-23 00:48N 39°18' W 009°57'412.5
2017-May-23 00:30N 39°14' W 009°57'612.7
2017-May-23 00:00N 39°08' W 009°57'612.7
2017-May-22 23:30N 39°02' W 009°57'612.8
2017-May-22 23:00N 38°55' W 009°57'612.7
2017-May-22 22:30N 38°49' W 009°57'612.8
2017-May-22 22:00N 38°43' W 009°57'612.6
2017-May-22 21:30N 38°36' W 009°55'612.5
2017-May-22 21:00N 38°30' W 009°53'612.5
2017-May-22 20:30N 38°24' W 009°51'612.5
2017-May-22 20:00N 38°18' W 009°49'612.4
2017-May-22 19:30N 38°12' W 009°47'612.5
2017-May-22 19:00N 38°06' W 009°45'612.5
2017-May-22 18:30N 38°00' W 009°43'612.4
2017-May-22 18:00N 37°54' W 009°41'612.5
2017-May-22 17:30N 37°48' W 009°41'612.4
2017-May-22 17:00N 37°42' W 009°39'612.3
2017-May-22 16:30N 37°36' W 009°37'612.5
2017-May-22 16:00N 37°30' W 009°36'612.6
2017-May-22 15:30N 37°24' W 009°34'812.5
2017-May-22 14:52N 37°16' W 009°32'812.6
2017-May-22 14:13N 37°08' W 009°29'4111.3
2017-May-22 10:36N 36°37' W 008°55'213.2
2017-May-22 10:29N 36°37' W 008°54'1513.1
2017-May-22 09:20N 36°33' W 008°35'2412.9
2017-May-22 07:27N 36°26' W 008°06'813.6
2017-May-22 06:53N 36°24' W 007°57'513.6
2017-May-22 06:29N 36°22' W 007°51'713.0
2017-May-22 05:55N 36°20' W 007°42'10212.7
2017-May-21 21:53N 35°58' W 005°39'513.0
2017-May-21 21:30N 35°59' W 005°33'612.6
2017-May-21 21:00N 36°01' W 005°25'612.3
2017-May-21 20:30N 36°02' W 005°18'612.3
2017-May-21 20:00N 36°03' W 005°10'22913.1
2017-May-21 02:33N 36°39' W 000°30'213.1
2017-May-21 02:24N 36°39' W 000°28'613.1
2017-May-21 01:56N 36°40' W 000°20'613.1
2017-May-21 01:29N 36°41' W 000°13'613.0
2017-May-21 01:00N 36°42' W 000°05'713.0
2017-May-21 00:30N 36°43' E 000°03'613.0
2017-May-21 00:00N 36°44' E 000°11'1013.1
2017-May-20 23:13N 36°46' E 000°24'313.0
2017-May-20 23:00N 36°46' E 000°27'713.1
2017-May-20 22:29N 36°47' E 000°35'2212.7
2017-May-20 20:44N 36°52' E 001°03'312.6
2017-May-20 20:30N 36°52' E 001°06'612.7
2017-May-20 20:00N 36°53' E 001°14'612.9
2017-May-20 19:30N 36°54' E 001°22'713.3
2017-May-20 19:00N 36°54' E 001°30'713.6
2017-May-20 18:30N 36°55' E 001°39'713.6
2017-May-20 18:00N 36°56' E 001°47'713.4
2017-May-20 17:30N 36°58' E 001°55'713.7
2017-May-20 17:00N 36°59' E 002°04'713.7
2017-May-20 16:29N 37°00' E 002°13'1413.6
2017-May-20 15:25N 37°02' E 002°31'3813.2
2017-May-20 12:33N 37°08' E 003°17'213.0
2017-May-20 12:23N 37°08' E 003°20'513.0
2017-May-20 12:00N 37°09' E 003°26'713.0
2017-May-20 11:30N 37°10' E 003°34'16413.4
2017-May-19 23:20N 37°36' E 006°58'513.4
2017-May-19 22:56N 37°37' E 007°04'713.2
2017-May-19 22:24N 37°38' E 007°13'613.5
2017-May-19 21:58N 37°39' E 007°20'613.4
2017-May-19 21:30N 37°40' E 007°28'713.3
2017-May-19 20:59N 37°41' E 007°37'813.4
2017-May-19 20:25N 37°42' E 007°46'613.2
2017-May-19 19:59N 37°43' E 007°54'713.4
2017-May-19 19:27N 37°44' E 008°02'13312.8
2017-May-19 09:02N 37°34' E 010°50'212.2
2017-May-19 08:52N 37°33' E 010°52'4312.7
2017-May-19 05:29N 37°14' E 011°40'613.0
2017-May-19 05:00N 37°11' E 011°47'713.0
2017-May-19 04:27N 37°07' E 011°55'912.8
2017-May-19 03:46N 37°03' E 012°05'512.5
2017-May-19 03:22N 37°02' E 012°11'1212.5
2017-May-19 02:26N 36°59' E 012°25'512.3
2017-May-19 02:00N 36°57' E 012°31'612.6
2017-May-19 01:30N 36°56' E 012°39'712.9
2017-May-19 00:58N 36°53' E 012°47'612.7
2017-May-19 00:30N 36°51' E 012°54'712.9
2017-May-19 00:00N 36°49' E 013°01'713.1
2017-May-18 23:30N 36°47' E 013°09'613.2
2017-May-18 23:00N 36°45' E 013°17'713.5
2017-May-18 22:30N 36°43' E 013°25'713.6
2017-May-18 22:00N 36°42' E 013°33'713.5
2017-May-18 21:30N 36°40' E 013°42'713.5
2017-May-18 21:00N 36°38' E 013°49'713.4
2017-May-18 20:30N 36°36' E 013°58'713.3
2017-May-18 20:00N 36°34' E 014°05'713.0
2017-May-18 19:30N 36°32' E 014°13'612.8
2017-May-18 19:00N 36°30' E 014°21'612.7
2017-May-18 18:30N 36°28' E 014°28'612.8
2017-May-18 18:00N 36°27' E 014°36'612.8
2017-May-18 17:30N 36°25' E 014°44'612.8
2017-May-18 17:00N 36°23' E 014°51'612.7
2017-May-18 16:30N 36°21' E 014°59'  

Dump ship's entire track history